sensor_id;sensor_type;location;lat;lon;timestamp;P1;durP1;ratioP1;P2;durP2;ratioP2
48861;SDS011;34681;49.188;-0.374;2023-04-25T00:00:27;7.10;;;5.43;;
48861;SDS011;34681;49.188;-0.374;2023-04-25T00:02:53;9.90;;;5.33;;
48861;SDS011;34681;49.188;-0.374;2023-04-25T00:05:20;7.27;;;5.17;;
48861;SDS011;34681;49.188;-0.374;2023-04-25T00:07:47;13.60;;;5.37;;
48861;SDS011;34681;49.188;-0.374;2023-04-25T00:10:13;8.93;;;5.40;;
48861;SDS011;34681;49.188;-0.374;2023-04-25T00:12:39;16.37;;;5.73;;
48861;SDS011;34681;49.188;-0.374;2023-04-25T00:15:05;10.80;;;6.37;;
48861;SDS011;34681;49.188;-0.374;2023-04-25T00:17:31;9.40;;;4.80;;
48861;SDS011;34681;49.188;-0.374;2023-04-25T00:19:56;7.10;;;4.90;;
48861;SDS011;34681;49.188;-0.374;2023-04-25T00:22:23;9.70;;;4.60;;
48861;SDS011;34681;49.188;-0.374;2023-04-25T00:24:48;9.80;;;5.10;;
48861;SDS011;34681;49.188;-0.374;2023-04-25T00:27:14;9.83;;;4.47;;
48861;SDS011;34681;49.188;-0.374;2023-04-25T00:29:39;14.43;;;6.07;;
48861;SDS011;34681;49.188;-0.374;2023-04-25T00:32:05;9.10;;;4.63;;
48861;SDS011;34681;49.188;-0.374;2023-04-25T00:34:30;5.33;;;4.80;;
48861;SDS011;34681;49.188;-0.374;2023-04-25T00:36:55;9.80;;;5.00;;
48861;SDS011;34681;49.188;-0.374;2023-04-25T00:39:21;11.77;;;5.30;;
48861;SDS011;34681;49.188;-0.374;2023-04-25T00:41:47;6.77;;;4.60;;
48861;SDS011;34681;49.188;-0.374;2023-04-25T00:44:13;7.80;;;4.63;;
48861;SDS011;34681;49.188;-0.374;2023-04-25T00:46:41;5.23;;;4.73;;
48861;SDS011;34681;49.188;-0.374;2023-04-25T00:49:07;9.30;;;4.60;;
48861;SDS011;34681;49.188;-0.374;2023-04-25T00:51:33;10.17;;;5.47;;
48861;SDS011;34681;49.188;-0.374;2023-04-25T00:53:59;9.63;;;4.70;;
48861;SDS011;34681;49.188;-0.374;2023-04-25T00:56:25;10.50;;;6.80;;
48861;SDS011;34681;49.188;-0.374;2023-04-25T00:58:52;6.70;;;4.63;;
48861;SDS011;34681;49.188;-0.374;2023-04-25T01:01:19;5.83;;;4.43;;
48861;SDS011;34681;49.188;-0.374;2023-04-25T01:03:44;5.90;;;3.87;;
48861;SDS011;34681;49.188;-0.374;2023-04-25T01:06:11;3.80;;;3.07;;
48861;SDS011;34681;49.188;-0.374;2023-04-25T01:08:37;3.63;;;3.43;;
48861;SDS011;34681;49.188;-0.374;2023-04-25T01:11:03;9.97;;;3.47;;
48861;SDS011;34681;49.188;-0.374;2023-04-25T01:13:29;7.20;;;3.37;;
48861;SDS011;34681;49.188;-0.374;2023-04-25T01:15:56;3.60;;;3.30;;
48861;SDS011;34681;49.188;-0.374;2023-04-25T01:18:22;8.33;;;3.70;;
48861;SDS011;34681;49.188;-0.374;2023-04-25T01:20:47;6.20;;;3.60;;
48861;SDS011;34681;49.188;-0.374;2023-04-25T01:23:16;5.47;;;3.50;;
48861;SDS011;34681;49.188;-0.374;2023-04-25T01:25:41;5.50;;;2.80;;
48861;SDS011;34681;49.188;-0.374;2023-04-25T01:28:07;5.60;;;3.27;;
48861;SDS011;34681;49.188;-0.374;2023-04-25T01:30:32;5.73;;;3.50;;
48861;SDS011;34681;49.188;-0.374;2023-04-25T01:32:58;11.03;;;4.57;;
48861;SDS011;34681;49.188;-0.374;2023-04-25T01:35:24;5.70;;;3.27;;
48861;SDS011;34681;49.188;-0.374;2023-04-25T01:37:50;6.30;;;3.77;;
48861;SDS011;34681;49.188;-0.374;2023-04-25T01:40:16;12.10;;;3.80;;
48861;SDS011;34681;49.188;-0.374;2023-04-25T01:42:43;4.67;;;4.20;;
48861;SDS011;34681;49.188;-0.374;2023-04-25T01:45:10;4.60;;;4.20;;
48861;SDS011;34681;49.188;-0.374;2023-04-25T01:47:36;7.30;;;3.90;;
48861;SDS011;34681;49.188;-0.374;2023-04-25T01:50:02;8.57;;;4.70;;
48861;SDS011;34681;49.188;-0.374;2023-04-25T01:52:29;4.63;;;4.20;;
48861;SDS011;34681;49.188;-0.374;2023-04-25T01:54:55;7.40;;;4.07;;
48861;SDS011;34681;49.188;-0.374;2023-04-25T01:57:22;9.57;;;4.80;;
48861;SDS011;34681;49.188;-0.374;2023-04-25T01:59:47;7.73;;;3.57;;
48861;SDS011;34681;49.188;-0.374;2023-04-25T02:02:14;8.17;;;4.40;;
48861;SDS011;34681;49.188;-0.374;2023-04-25T02:04:39;11.53;;;5.10;;
48861;SDS011;34681;49.188;-0.374;2023-04-25T02:07:04;6.13;;;4.37;;
48861;SDS011;34681;49.188;-0.374;2023-04-25T02:09:30;6.77;;;4.13;;
48861;SDS011;34681;49.188;-0.374;2023-04-25T02:11:55;7.07;;;4.30;;
48861;SDS011;34681;49.188;-0.374;2023-04-25T02:14:21;11.50;;;5.10;;
48861;SDS011;34681;49.188;-0.374;2023-04-25T02:16:46;12.77;;;4.40;;
48861;SDS011;34681;49.188;-0.374;2023-04-25T02:19:11;6.67;;;4.20;;
48861;SDS011;34681;49.188;-0.374;2023-04-25T02:21:37;9.23;;;4.30;;
48861;SDS011;34681;49.188;-0.374;2023-04-25T02:24:02;9.10;;;4.70;;
48861;SDS011;34681;49.188;-0.374;2023-04-25T02:26:28;14.10;;;4.83;;
48861;SDS011;34681;49.188;-0.374;2023-04-25T02:28:54;12.73;;;4.80;;
48861;SDS011;34681;49.188;-0.374;2023-04-25T02:31:20;7.10;;;5.03;;
48861;SDS011;34681;49.188;-0.374;2023-04-25T02:33:47;13.57;;;5.60;;
48861;SDS011;34681;49.188;-0.374;2023-04-25T02:36:12;12.90;;;4.97;;
48861;SDS011;34681;49.188;-0.374;2023-04-25T02:38:38;14.83;;;5.40;;
48861;SDS011;34681;49.188;-0.374;2023-04-25T02:41:03;7.93;;;5.30;;
48861;SDS011;34681;49.188;-0.374;2023-04-25T02:43:29;9.37;;;5.57;;
48861;SDS011;34681;49.188;-0.374;2023-04-25T02:45:54;10.40;;;5.10;;
48861;SDS011;34681;49.188;-0.374;2023-04-25T02:48:20;10.53;;;5.00;;
48861;SDS011;34681;49.188;-0.374;2023-04-25T02:50:45;11.33;;;5.10;;
48861;SDS011;34681;49.188;-0.374;2023-04-25T02:53:10;9.40;;;5.17;;
48861;SDS011;34681;49.188;-0.374;2023-04-25T02:55:36;11.90;;;5.50;;
48861;SDS011;34681;49.188;-0.374;2023-04-25T02:58:01;15.97;;;4.80;;
48861;SDS011;34681;49.188;-0.374;2023-04-25T03:00:27;11.13;;;6.20;;
48861;SDS011;34681;49.188;-0.374;2023-04-25T03:02:52;10.07;;;5.10;;
48861;SDS011;34681;49.188;-0.374;2023-04-25T03:05:18;18.00;;;5.20;;
48861;SDS011;34681;49.188;-0.374;2023-04-25T03:07:44;10.67;;;5.00;;
48861;SDS011;34681;49.188;-0.374;2023-04-25T03:10:11;7.03;;;4.57;;
48861;SDS011;34681;49.188;-0.374;2023-04-25T03:12:36;9.53;;;4.93;;
48861;SDS011;34681;49.188;-0.374;2023-04-25T03:15:02;12.73;;;4.57;;
48861;SDS011;34681;49.188;-0.374;2023-04-25T03:17:28;14.63;;;5.80;;
48861;SDS011;34681;49.188;-0.374;2023-04-25T03:19:54;5.20;;;4.10;;
48861;SDS011;34681;49.188;-0.374;2023-04-25T03:22:20;11.67;;;4.70;;
48861;SDS011;34681;49.188;-0.374;2023-04-25T03:24:46;15.93;;;4.00;;
48861;SDS011;34681;49.188;-0.374;2023-04-25T03:27:12;12.90;;;4.10;;
48861;SDS011;34681;49.188;-0.374;2023-04-25T03:29:37;11.33;;;4.67;;
48861;SDS011;34681;49.188;-0.374;2023-04-25T03:32:03;10.37;;;4.43;;
48861;SDS011;34681;49.188;-0.374;2023-04-25T03:34:28;6.70;;;4.00;;
48861;SDS011;34681;49.188;-0.374;2023-04-25T03:36:53;10.90;;;5.10;;
48861;SDS011;34681;49.188;-0.374;2023-04-25T03:39:19;13.77;;;4.77;;
48861;SDS011;34681;49.188;-0.374;2023-04-25T03:41:44;8.93;;;5.33;;
48861;SDS011;34681;49.188;-0.374;2023-04-25T03:44:10;8.77;;;4.80;;
48861;SDS011;34681;49.188;-0.374;2023-04-25T03:46:35;12.03;;;5.70;;
48861;SDS011;34681;49.188;-0.374;2023-04-25T03:49:00;10.83;;;4.57;;
48861;SDS011;34681;49.188;-0.374;2023-04-25T03:51:26;9.90;;;3.80;;
48861;SDS011;34681;49.188;-0.374;2023-04-25T03:53:51;17.43;;;5.00;;
48861;SDS011;34681;49.188;-0.374;2023-04-25T03:56:17;9.13;;;4.90;;
48861;SDS011;34681;49.188;-0.374;2023-04-25T03:58:43;5.87;;;4.37;;
48861;SDS011;34681;49.188;-0.374;2023-04-25T04:01:08;11.53;;;4.10;;
48861;SDS011;34681;49.188;-0.374;2023-04-25T04:03:35;6.80;;;4.13;;
48861;SDS011;34681;49.188;-0.374;2023-04-25T04:06:01;8.00;;;4.77;;
48861;SDS011;34681;49.188;-0.374;2023-04-25T04:08:30;13.00;;;5.80;;
48861;SDS011;34681;49.188;-0.374;2023-04-25T04:10:56;11.57;;;5.20;;
48861;SDS011;34681;49.188;-0.374;2023-04-25T04:13:22;13.90;;;5.17;;
48861;SDS011;34681;49.188;-0.374;2023-04-25T04:15:48;7.37;;;4.27;;
48861;SDS011;34681;49.188;-0.374;2023-04-25T04:18:13;9.57;;;5.43;;
48861;SDS011;34681;49.188;-0.374;2023-04-25T04:20:38;5.17;;;4.60;;
48861;SDS011;34681;49.188;-0.374;2023-04-25T04:23:04;7.93;;;4.13;;
48861;SDS011;34681;49.188;-0.374;2023-04-25T04:25:30;10.33;;;6.30;;
48861;SDS011;34681;49.188;-0.374;2023-04-25T04:27:55;13.60;;;5.53;;
48861;SDS011;34681;49.188;-0.374;2023-04-25T04:30:24;9.17;;;4.40;;
48861;SDS011;34681;49.188;-0.374;2023-04-25T04:32:50;11.63;;;4.27;;
48861;SDS011;34681;49.188;-0.374;2023-04-25T04:35:16;9.67;;;4.30;;
48861;SDS011;34681;49.188;-0.374;2023-04-25T04:37:41;8.83;;;5.03;;
48861;SDS011;34681;49.188;-0.374;2023-04-25T04:40:08;7.23;;;4.70;;
48861;SDS011;34681;49.188;-0.374;2023-04-25T04:42:34;14.17;;;5.60;;
48861;SDS011;34681;49.188;-0.374;2023-04-25T04:45:01;13.83;;;5.53;;
48861;SDS011;34681;49.188;-0.374;2023-04-25T04:47:28;9.90;;;5.70;;
48861;SDS011;34681;49.188;-0.374;2023-04-25T04:49:56;13.60;;;6.00;;
48861;SDS011;34681;49.188;-0.374;2023-04-25T04:52:21;19.10;;;5.70;;
48861;SDS011;34681;49.188;-0.374;2023-04-25T04:54:47;9.23;;;5.50;;
48861;SDS011;34681;49.188;-0.374;2023-04-25T04:57:12;15.07;;;5.03;;
48861;SDS011;34681;49.188;-0.374;2023-04-25T04:59:37;20.40;;;5.40;;
48861;SDS011;34681;49.188;-0.374;2023-04-25T05:02:03;17.77;;;6.10;;
48861;SDS011;34681;49.188;-0.374;2023-04-25T05:04:28;12.40;;;5.07;;
48861;SDS011;34681;49.188;-0.374;2023-04-25T05:06:53;13.80;;;6.13;;
48861;SDS011;34681;49.188;-0.374;2023-04-25T05:09:19;11.07;;;4.60;;
48861;SDS011;34681;49.188;-0.374;2023-04-25T05:11:44;12.60;;;5.23;;
48861;SDS011;34681;49.188;-0.374;2023-04-25T05:14:10;15.53;;;5.47;;
48861;SDS011;34681;49.188;-0.374;2023-04-25T05:16:35;13.37;;;5.67;;
48861;SDS011;34681;49.188;-0.374;2023-04-25T05:19:00;10.93;;;4.80;;
48861;SDS011;34681;49.188;-0.374;2023-04-25T05:21:25;11.10;;;4.73;;
48861;SDS011;34681;49.188;-0.374;2023-04-25T05:23:53;14.87;;;4.63;;
48861;SDS011;34681;49.188;-0.374;2023-04-25T05:26:19;8.50;;;4.33;;
48861;SDS011;34681;49.188;-0.374;2023-04-25T05:28:45;10.13;;;4.40;;
48861;SDS011;34681;49.188;-0.374;2023-04-25T05:31:11;10.93;;;4.73;;
48861;SDS011;34681;49.188;-0.374;2023-04-25T05:33:36;15.10;;;5.23;;
48861;SDS011;34681;49.188;-0.374;2023-04-25T05:36:02;13.13;;;5.10;;
48861;SDS011;34681;49.188;-0.374;2023-04-25T05:38:27;9.03;;;5.30;;
48861;SDS011;34681;49.188;-0.374;2023-04-25T05:40:53;8.30;;;4.47;;
48861;SDS011;34681;49.188;-0.374;2023-04-25T05:43:18;9.00;;;4.70;;
48861;SDS011;34681;49.188;-0.374;2023-04-25T05:45:43;6.07;;;4.87;;
48861;SDS011;34681;49.188;-0.374;2023-04-25T05:48:09;6.23;;;4.07;;
48861;SDS011;34681;49.188;-0.374;2023-04-25T05:50:34;9.13;;;4.87;;
48861;SDS011;34681;49.188;-0.374;2023-04-25T05:53:00;9.73;;;5.10;;
48861;SDS011;34681;49.188;-0.374;2023-04-25T05:55:25;12.20;;;4.77;;
48861;SDS011;34681;49.188;-0.374;2023-04-25T05:57:50;10.27;;;4.40;;
48861;SDS011;34681;49.188;-0.374;2023-04-25T06:00:16;9.23;;;4.53;;
48861;SDS011;34681;49.188;-0.374;2023-04-25T06:02:41;4.90;;;3.90;;
48861;SDS011;34681;49.188;-0.374;2023-04-25T06:05:07;11.90;;;4.33;;
48861;SDS011;34681;49.188;-0.374;2023-04-25T06:07:33;7.70;;;4.10;;
48861;SDS011;34681;49.188;-0.374;2023-04-25T06:09:59;11.07;;;4.30;;
48861;SDS011;34681;49.188;-0.374;2023-04-25T06:12:25;7.40;;;3.90;;
48861;SDS011;34681;49.188;-0.374;2023-04-25T06:14:51;9.30;;;4.20;;
48861;SDS011;34681;49.188;-0.374;2023-04-25T06:17:16;8.73;;;5.27;;
48861;SDS011;34681;49.188;-0.374;2023-04-25T06:19:42;12.77;;;4.30;;
48861;SDS011;34681;49.188;-0.374;2023-04-25T06:22:07;7.83;;;3.93;;
48861;SDS011;34681;49.188;-0.374;2023-04-25T06:24:33;6.70;;;3.50;;
48861;SDS011;34681;49.188;-0.374;2023-04-25T06:26:59;8.87;;;4.43;;
48861;SDS011;34681;49.188;-0.374;2023-04-25T06:29:25;7.37;;;3.83;;
48861;SDS011;34681;49.188;-0.374;2023-04-25T06:31:50;8.93;;;5.07;;
48861;SDS011;34681;49.188;-0.374;2023-04-25T06:34:16;6.83;;;3.90;;
48861;SDS011;34681;49.188;-0.374;2023-04-25T06:36:41;7.63;;;4.57;;
48861;SDS011;34681;49.188;-0.374;2023-04-25T06:39:06;11.07;;;4.40;;
48861;SDS011;34681;49.188;-0.374;2023-04-25T06:41:32;13.50;;;5.10;;
48861;SDS011;34681;49.188;-0.374;2023-04-25T06:43:58;7.73;;;4.83;;
48861;SDS011;34681;49.188;-0.374;2023-04-25T06:46:23;10.10;;;4.30;;
48861;SDS011;34681;49.188;-0.374;2023-04-25T06:48:48;12.10;;;4.03;;
48861;SDS011;34681;49.188;-0.374;2023-04-25T06:51:14;22.43;;;6.40;;
48861;SDS011;34681;49.188;-0.374;2023-04-25T06:53:39;18.97;;;4.83;;
48861;SDS011;34681;49.188;-0.374;2023-04-25T06:56:05;14.40;;;6.37;;
48861;SDS011;34681;49.188;-0.374;2023-04-25T06:58:30;12.30;;;5.87;;
48861;SDS011;34681;49.188;-0.374;2023-04-25T07:00:56;13.37;;;5.10;;
48861;SDS011;34681;49.188;-0.374;2023-04-25T07:03:21;11.70;;;4.60;;
48861;SDS011;34681;49.188;-0.374;2023-04-25T07:05:47;19.60;;;5.37;;
48861;SDS011;34681;49.188;-0.374;2023-04-25T07:08:12;16.83;;;5.87;;
48861;SDS011;34681;49.188;-0.374;2023-04-25T07:10:37;8.27;;;4.40;;
48861;SDS011;34681;49.188;-0.374;2023-04-25T07:13:03;17.43;;;5.40;;
48861;SDS011;34681;49.188;-0.374;2023-04-25T07:15:28;14.53;;;6.60;;
48861;SDS011;34681;49.188;-0.374;2023-04-25T07:17:54;12.17;;;5.10;;
48861;SDS011;34681;49.188;-0.374;2023-04-25T07:20:19;16.33;;;5.10;;
48861;SDS011;34681;49.188;-0.374;2023-04-25T07:22:44;18.77;;;5.87;;
48861;SDS011;34681;49.188;-0.374;2023-04-25T07:25:10;21.90;;;5.10;;
48861;SDS011;34681;49.188;-0.374;2023-04-25T07:27:35;16.80;;;3.97;;
48861;SDS011;34681;49.188;-0.374;2023-04-25T07:30:01;9.73;;;3.60;;
48861;SDS011;34681;49.188;-0.374;2023-04-25T07:32:27;11.53;;;5.40;;
48861;SDS011;34681;49.188;-0.374;2023-04-25T07:34:52;9.90;;;3.93;;
48861;SDS011;34681;49.188;-0.374;2023-04-25T07:37:18;16.67;;;5.80;;
48861;SDS011;34681;49.188;-0.374;2023-04-25T07:39:46;15.40;;;4.93;;
48861;SDS011;34681;49.188;-0.374;2023-04-25T07:42:11;15.87;;;5.13;;
48861;SDS011;34681;49.188;-0.374;2023-04-25T07:44:37;16.47;;;5.50;;
48861;SDS011;34681;49.188;-0.374;2023-04-25T07:47:06;11.90;;;4.10;;
48861;SDS011;34681;49.188;-0.374;2023-04-25T07:49:32;11.70;;;4.07;;
48861;SDS011;34681;49.188;-0.374;2023-04-25T07:51:59;15.00;;;4.70;;
48861;SDS011;34681;49.188;-0.374;2023-04-25T07:54:25;18.43;;;4.97;;
48861;SDS011;34681;49.188;-0.374;2023-04-25T07:56:50;19.50;;;5.30;;
48861;SDS011;34681;49.188;-0.374;2023-04-25T07:59:15;13.50;;;5.57;;
48861;SDS011;34681;49.188;-0.374;2023-04-25T08:01:41;9.90;;;5.07;;
48861;SDS011;34681;49.188;-0.374;2023-04-25T08:04:06;12.63;;;4.57;;
48861;SDS011;34681;49.188;-0.374;2023-04-25T08:06:31;19.30;;;5.10;;
48861;SDS011;34681;49.188;-0.374;2023-04-25T08:08:57;17.40;;;4.90;;
48861;SDS011;34681;49.188;-0.374;2023-04-25T08:11:23;13.80;;;4.83;;
48861;SDS011;34681;49.188;-0.374;2023-04-25T08:13:48;14.57;;;4.20;;
48861;SDS011;34681;49.188;-0.374;2023-04-25T08:16:13;13.70;;;4.23;;
48861;SDS011;34681;49.188;-0.374;2023-04-25T08:18:39;11.27;;;5.13;;
48861;SDS011;34681;49.188;-0.374;2023-04-25T08:21:04;10.07;;;4.37;;
48861;SDS011;34681;49.188;-0.374;2023-04-25T08:23:29;13.40;;;4.63;;
48861;SDS011;34681;49.188;-0.374;2023-04-25T08:25:55;12.97;;;4.73;;
48861;SDS011;34681;49.188;-0.374;2023-04-25T08:28:21;8.23;;;3.80;;
48861;SDS011;34681;49.188;-0.374;2023-04-25T08:30:46;18.27;;;5.10;;
48861;SDS011;34681;49.188;-0.374;2023-04-25T08:33:11;16.57;;;4.03;;
48861;SDS011;34681;49.188;-0.374;2023-04-25T08:35:37;8.27;;;3.73;;
48861;SDS011;34681;49.188;-0.374;2023-04-25T08:38:02;11.17;;;4.37;;
48861;SDS011;34681;49.188;-0.374;2023-04-25T08:40:27;10.03;;;3.77;;
48861;SDS011;34681;49.188;-0.374;2023-04-25T08:42:58;14.30;;;5.63;;
48861;SDS011;34681;49.188;-0.374;2023-04-25T08:45:28;24.03;;;5.30;;
48861;SDS011;34681;49.188;-0.374;2023-04-25T08:47:57;17.90;;;4.43;;
48861;SDS011;34681;49.188;-0.374;2023-04-25T08:50:22;13.00;;;4.40;;
48861;SDS011;34681;49.188;-0.374;2023-04-25T08:52:48;6.30;;;3.57;;
48861;SDS011;34681;49.188;-0.374;2023-04-25T08:55:17;18.20;;;4.70;;
48861;SDS011;34681;49.188;-0.374;2023-04-25T08:57:43;11.53;;;3.87;;
48861;SDS011;34681;49.188;-0.374;2023-04-25T09:00:10;8.07;;;4.13;;
48861;SDS011;34681;49.188;-0.374;2023-04-25T09:02:37;10.57;;;4.47;;
48861;SDS011;34681;49.188;-0.374;2023-04-25T09:05:04;18.63;;;4.77;;
48861;SDS011;34681;49.188;-0.374;2023-04-25T09:07:31;14.50;;;4.37;;
48861;SDS011;34681;49.188;-0.374;2023-04-25T09:09:57;12.57;;;4.90;;
48861;SDS011;34681;49.188;-0.374;2023-04-25T09:12:24;11.77;;;4.20;;
48861;SDS011;34681;49.188;-0.374;2023-04-25T09:17:54;12.83;;;3.30;;
48861;SDS011;34681;49.188;-0.374;2023-04-25T09:20:23;11.33;;;3.90;;
48861;SDS011;34681;49.188;-0.374;2023-04-25T09:22:49;10.43;;;4.27;;
48861;SDS011;34681;49.188;-0.374;2023-04-25T09:25:27;11.83;;;4.40;;
48861;SDS011;34681;49.188;-0.374;2023-04-25T09:27:59;12.93;;;4.77;;
48861;SDS011;34681;49.188;-0.374;2023-04-25T09:30:29;12.67;;;4.30;;
48861;SDS011;34681;49.188;-0.374;2023-04-25T09:32:56;14.53;;;4.27;;
48861;SDS011;34681;49.188;-0.374;2023-04-25T09:35:24;12.17;;;4.20;;
48861;SDS011;34681;49.188;-0.374;2023-04-25T09:37:52;6.80;;;3.90;;
48861;SDS011;34681;49.188;-0.374;2023-04-25T09:40:18;7.20;;;4.83;;
48861;SDS011;34681;49.188;-0.374;2023-04-25T09:42:44;13.90;;;3.77;;
48861;SDS011;34681;49.188;-0.374;2023-04-25T09:45:12;15.60;;;4.60;;
48861;SDS011;34681;49.188;-0.374;2023-04-25T09:47:38;11.37;;;4.07;;
48861;SDS011;34681;49.188;-0.374;2023-04-25T09:50:04;15.60;;;4.20;;
48861;SDS011;34681;49.188;-0.374;2023-04-25T09:52:40;8.90;;;4.10;;
48861;SDS011;34681;49.188;-0.374;2023-04-25T09:55:05;12.77;;;3.57;;
48861;SDS011;34681;49.188;-0.374;2023-04-25T09:57:31;6.80;;;4.00;;
48861;SDS011;34681;49.188;-0.374;2023-04-25T09:59:56;6.13;;;4.00;;
48861;SDS011;34681;49.188;-0.374;2023-04-25T10:02:25;12.83;;;4.50;;
48861;SDS011;34681;49.188;-0.374;2023-04-25T10:04:54;9.60;;;5.50;;
48861;SDS011;34681;49.188;-0.374;2023-04-25T10:07:25;17.70;;;4.70;;
48861;SDS011;34681;49.188;-0.374;2023-04-25T10:10:02;14.77;;;4.83;;
48861;SDS011;34681;49.188;-0.374;2023-04-25T10:12:29;9.70;;;3.80;;
48861;SDS011;34681;49.188;-0.374;2023-04-25T10:14:58;12.70;;;4.90;;
48861;SDS011;34681;49.188;-0.374;2023-04-25T10:17:24;15.10;;;4.60;;
48861;SDS011;34681;49.188;-0.374;2023-04-25T10:19:53;10.20;;;4.17;;
48861;SDS011;34681;49.188;-0.374;2023-04-25T10:22:29;15.07;;;5.23;;
48861;SDS011;34681;49.188;-0.374;2023-04-25T10:24:57;12.63;;;4.37;;
48861;SDS011;34681;49.188;-0.374;2023-04-25T10:27:23;8.40;;;4.50;;
48861;SDS011;34681;49.188;-0.374;2023-04-25T10:32:30;9.23;;;4.67;;
48861;SDS011;34681;49.188;-0.374;2023-04-25T10:34:57;12.70;;;4.70;;
48861;SDS011;34681;49.188;-0.374;2023-04-25T10:37:23;13.90;;;4.20;;
48861;SDS011;34681;49.188;-0.374;2023-04-25T10:39:49;10.33;;;4.80;;
48861;SDS011;34681;49.188;-0.374;2023-04-25T10:42:14;14.23;;;4.27;;
48861;SDS011;34681;49.188;-0.374;2023-04-25T10:44:40;10.93;;;3.90;;
48861;SDS011;34681;49.188;-0.374;2023-04-25T10:47:06;13.10;;;4.83;;
48861;SDS011;34681;49.188;-0.374;2023-04-25T10:49:42;7.93;;;4.17;;
48861;SDS011;34681;49.188;-0.374;2023-04-25T10:54:57;11.27;;;4.17;;
48861;SDS011;34681;49.188;-0.374;2023-04-25T11:00:15;11.60;;;3.77;;
48861;SDS011;34681;49.188;-0.374;2023-04-25T11:02:43;11.50;;;4.10;;
48861;SDS011;34681;49.188;-0.374;2023-04-25T11:05:16;12.00;;;4.53;;
48861;SDS011;34681;49.188;-0.374;2023-04-25T11:07:53;12.40;;;3.80;;
48861;SDS011;34681;49.188;-0.374;2023-04-25T11:10:24;9.70;;;3.73;;
48861;SDS011;34681;49.188;-0.374;2023-04-25T11:12:54;13.57;;;3.97;;
48861;SDS011;34681;49.188;-0.374;2023-04-25T11:15:20;6.97;;;3.57;;
48861;SDS011;34681;49.188;-0.374;2023-04-25T11:17:45;13.40;;;4.60;;
48861;SDS011;34681;49.188;-0.374;2023-04-25T11:20:11;10.53;;;3.80;;
48861;SDS011;34681;49.188;-0.374;2023-04-25T11:22:38;9.90;;;3.70;;
48861;SDS011;34681;49.188;-0.374;2023-04-25T11:25:08;12.67;;;4.27;;
48861;SDS011;34681;49.188;-0.374;2023-04-25T11:27:37;8.83;;;3.80;;
48861;SDS011;34681;49.188;-0.374;2023-04-25T11:30:11;7.97;;;4.07;;
48861;SDS011;34681;49.188;-0.374;2023-04-25T11:32:39;12.27;;;3.57;;
48861;SDS011;34681;49.188;-0.374;2023-04-25T11:35:05;15.60;;;3.90;;
48861;SDS011;34681;49.188;-0.374;2023-04-25T11:37:31;11.13;;;4.13;;
48861;SDS011;34681;49.188;-0.374;2023-04-25T11:39:56;10.67;;;4.00;;
48861;SDS011;34681;49.188;-0.374;2023-04-25T11:42:21;12.23;;;3.73;;
48861;SDS011;34681;49.188;-0.374;2023-04-25T11:44:47;16.40;;;3.93;;
48861;SDS011;34681;49.188;-0.374;2023-04-25T11:47:12;7.50;;;3.80;;
48861;SDS011;34681;49.188;-0.374;2023-04-25T11:49:38;5.77;;;3.13;;
48861;SDS011;34681;49.188;-0.374;2023-04-25T11:52:05;13.10;;;4.20;;
48861;SDS011;34681;49.188;-0.374;2023-04-25T11:54:32;10.93;;;4.53;;
48861;SDS011;34681;49.188;-0.374;2023-04-25T11:57:00;11.90;;;4.33;;
48861;SDS011;34681;49.188;-0.374;2023-04-25T11:59:26;12.80;;;3.53;;
48861;SDS011;34681;49.188;-0.374;2023-04-25T12:01:52;6.10;;;3.37;;
48861;SDS011;34681;49.188;-0.374;2023-04-25T12:04:22;6.57;;;4.70;;
48861;SDS011;34681;49.188;-0.374;2023-04-25T12:06:52;11.10;;;3.47;;
48861;SDS011;34681;49.188;-0.374;2023-04-25T12:09:19;8.20;;;2.90;;
48861;SDS011;34681;49.188;-0.374;2023-04-25T12:11:55;9.90;;;3.90;;
48861;SDS011;34681;49.188;-0.374;2023-04-25T12:14:23;7.60;;;3.13;;
48861;SDS011;34681;49.188;-0.374;2023-04-25T12:16:49;12.57;;;3.70;;
48861;SDS011;34681;49.188;-0.374;2023-04-25T12:19:16;8.87;;;3.20;;
48861;SDS011;34681;49.188;-0.374;2023-04-25T12:21:43;8.93;;;2.97;;
48861;SDS011;34681;49.188;-0.374;2023-04-25T12:24:21;8.77;;;3.97;;
48861;SDS011;34681;49.188;-0.374;2023-04-25T12:29:26;6.53;;;2.80;;
48861;SDS011;34681;49.188;-0.374;2023-04-25T12:31:53;5.93;;;3.60;;
48861;SDS011;34681;49.188;-0.374;2023-04-25T12:34:20;12.77;;;3.70;;
48861;SDS011;34681;49.188;-0.374;2023-04-25T12:36:46;7.77;;;3.20;;
48861;SDS011;34681;49.188;-0.374;2023-04-25T12:39:19;6.00;;;2.97;;
48861;SDS011;34681;49.188;-0.374;2023-04-25T12:41:46;7.17;;;3.23;;
48861;SDS011;34681;49.188;-0.374;2023-04-25T12:44:12;6.17;;;3.80;;
48861;SDS011;34681;49.188;-0.374;2023-04-25T12:46:38;7.57;;;3.47;;
48861;SDS011;34681;49.188;-0.374;2023-04-25T12:49:04;15.63;;;4.00;;
48861;SDS011;34681;49.188;-0.374;2023-04-25T12:51:32;6.93;;;2.90;;
48861;SDS011;34681;49.188;-0.374;2023-04-25T12:53:58;9.10;;;3.90;;
48861;SDS011;34681;49.188;-0.374;2023-04-25T12:56:24;12.20;;;4.27;;
48861;SDS011;34681;49.188;-0.374;2023-04-25T12:58:50;6.47;;;3.97;;
48861;SDS011;34681;49.188;-0.374;2023-04-25T13:01:17;11.10;;;4.20;;
48861;SDS011;34681;49.188;-0.374;2023-04-25T13:03:42;7.33;;;3.40;;
48861;SDS011;34681;49.188;-0.374;2023-04-25T13:06:08;7.27;;;4.23;;
48861;SDS011;34681;49.188;-0.374;2023-04-25T13:08:33;11.73;;;4.23;;
48861;SDS011;34681;49.188;-0.374;2023-04-25T13:11:00;12.13;;;4.53;;
48861;SDS011;34681;49.188;-0.374;2023-04-25T13:13:25;7.40;;;3.70;;
48861;SDS011;34681;49.188;-0.374;2023-04-25T13:15:52;8.90;;;3.93;;
48861;SDS011;34681;49.188;-0.374;2023-04-25T13:18:18;12.00;;;3.73;;
48861;SDS011;34681;49.188;-0.374;2023-04-25T13:20:44;12.87;;;3.77;;
48861;SDS011;34681;49.188;-0.374;2023-04-25T13:23:11;6.97;;;3.83;;
48861;SDS011;34681;49.188;-0.374;2023-04-25T13:25:36;8.60;;;3.33;;
48861;SDS011;34681;49.188;-0.374;2023-04-25T13:28:02;8.93;;;3.67;;
48861;SDS011;34681;49.188;-0.374;2023-04-25T13:30:28;14.37;;;4.40;;
48861;SDS011;34681;49.188;-0.374;2023-04-25T13:32:53;9.03;;;3.80;;
48861;SDS011;34681;49.188;-0.374;2023-04-25T13:35:21;10.03;;;4.43;;
48861;SDS011;34681;49.188;-0.374;2023-04-25T13:37:46;6.20;;;3.00;;
48861;SDS011;34681;49.188;-0.374;2023-04-25T13:40:11;5.40;;;2.80;;
48861;SDS011;34681;49.188;-0.374;2023-04-25T13:42:37;7.10;;;3.27;;
48861;SDS011;34681;49.188;-0.374;2023-04-25T13:45:03;8.63;;;3.53;;
48861;SDS011;34681;49.188;-0.374;2023-04-25T13:47:29;8.50;;;2.90;;
48861;SDS011;34681;49.188;-0.374;2023-04-25T13:49:55;6.67;;;2.80;;
48861;SDS011;34681;49.188;-0.374;2023-04-25T13:52:21;6.70;;;3.43;;
48861;SDS011;34681;49.188;-0.374;2023-04-25T13:54:46;6.30;;;3.07;;
48861;SDS011;34681;49.188;-0.374;2023-04-25T13:57:12;6.00;;;2.77;;
48861;SDS011;34681;49.188;-0.374;2023-04-25T13:59:38;11.60;;;3.50;;
48861;SDS011;34681;49.188;-0.374;2023-04-25T14:02:03;7.23;;;3.40;;
48861;SDS011;34681;49.188;-0.374;2023-04-25T14:04:29;8.40;;;3.50;;
48861;SDS011;34681;49.188;-0.374;2023-04-25T14:06:55;8.20;;;2.80;;
48861;SDS011;34681;49.188;-0.374;2023-04-25T14:09:20;10.63;;;2.67;;
48861;SDS011;34681;49.188;-0.374;2023-04-25T14:11:50;8.23;;;3.13;;
48861;SDS011;34681;49.188;-0.374;2023-04-25T14:14:16;7.90;;;2.70;;
48861;SDS011;34681;49.188;-0.374;2023-04-25T14:16:42;7.70;;;3.30;;
48861;SDS011;34681;49.188;-0.374;2023-04-25T14:19:07;8.23;;;3.53;;
48861;SDS011;34681;49.188;-0.374;2023-04-25T14:21:32;7.00;;;2.47;;
48861;SDS011;34681;49.188;-0.374;2023-04-25T14:23:58;9.27;;;2.93;;
48861;SDS011;34681;49.188;-0.374;2023-04-25T14:26:23;9.40;;;3.23;;
48861;SDS011;34681;49.188;-0.374;2023-04-25T14:28:48;4.23;;;2.83;;
48861;SDS011;34681;49.188;-0.374;2023-04-25T14:31:15;10.10;;;3.93;;
48861;SDS011;34681;49.188;-0.374;2023-04-25T14:33:40;8.43;;;2.50;;
48861;SDS011;34681;49.188;-0.374;2023-04-25T14:36:07;12.50;;;3.73;;